createdAt,value
2023-05-14T00:01:07.485Z,10.50
2023-05-14T00:03:34.575Z,10.50
2023-05-14T00:06:01.501Z,12.20
2023-05-14T00:08:29.311Z,10.50
2023-05-14T00:10:56.001Z,10.50
2023-05-14T00:13:23.093Z,10.50
2023-05-14T00:15:49.879Z,10.70
2023-05-14T00:18:16.599Z,10.50
2023-05-14T00:20:43.425Z,11.40
2023-05-14T00:23:10.394Z,10.50
2023-05-14T00:25:37.153Z,10.50
2023-05-14T00:28:03.925Z,10.20
2023-05-14T00:30:30.655Z,10.40
2023-05-14T00:32:57.376Z,10.40
2023-05-14T00:35:24.013Z,12.70
2023-05-14T00:37:50.978Z,10.40
2023-05-14T00:40:18.132Z,10.40
2023-05-14T00:42:44.766Z,10.40
2023-05-14T00:45:11.412Z,10.40
2023-05-14T00:47:39.650Z,10.30
2023-05-14T00:50:06.880Z,10.40
2023-05-14T00:52:33.787Z,10.30
2023-05-14T00:55:01.413Z,12.00
2023-05-14T00:57:28.239Z,10.40
2023-05-14T00:59:55.023Z,12.50
2023-05-14T01:02:22.251Z,10.40
2023-05-14T01:04:49.745Z,10.30
2023-05-14T01:07:25.668Z,10.30
2023-05-14T01:10:11.370Z,10.30
2023-05-14T01:12:48.035Z,10.40
2023-05-14T01:15:18.580Z,10.40
2023-05-14T01:17:56.706Z,10.40
2023-05-14T01:20:23.734Z,10.40
2023-05-14T01:22:50.618Z,10.40
2023-05-14T01:25:18.417Z,10.40
2023-05-14T01:28:03.874Z,10.40
2023-05-14T01:30:56.992Z,10.40
2023-05-14T01:33:26.146Z,10.40
2023-05-14T01:35:53.754Z,10.40
2023-05-14T01:38:21.551Z,11.40
2023-05-14T01:40:48.989Z,10.90
2023-05-14T01:43:16.278Z,10.50
2023-05-14T01:45:43.852Z,10.40
2023-05-14T01:48:11.117Z,10.40
2023-05-14T01:50:37.826Z,10.50
2023-05-14T01:53:04.532Z,10.50
2023-05-14T01:55:31.164Z,13.80
2023-05-14T01:58:00.653Z,13.10
2023-05-14T02:00:27.291Z,10.50
2023-05-14T02:02:53.930Z,10.50
2023-05-14T02:05:21.119Z,10.50
2023-05-14T02:07:47.895Z,10.40
2023-05-14T02:10:14.591Z,13.30
2023-05-14T02:12:41.513Z,10.40
2023-05-14T02:15:09.256Z,10.40
2023-05-14T02:17:36.326Z,10.40
2023-05-14T02:20:03.427Z,10.30
2023-05-14T02:22:30.088Z,10.30
2023-05-14T02:24:56.722Z,10.40
2023-05-14T02:27:23.366Z,10.40
2023-05-14T02:29:50.046Z,12.90
2023-05-14T02:32:16.661Z,10.30
2023-05-14T02:34:43.320Z,10.40
2023-05-14T02:37:12.861Z,10.30
2023-05-14T02:39:39.590Z,12.30
2023-05-14T02:42:07.421Z,10.30
2023-05-14T02:44:34.077Z,10.30
2023-05-14T02:47:01.012Z,10.30
2023-05-14T02:49:28.044Z,10.30
2023-05-14T02:51:54.813Z,11.80
2023-05-14T02:54:21.468Z,10.30
2023-05-14T02:56:48.355Z,12.80
2023-05-14T02:59:15.548Z,10.30
2023-05-14T03:01:42.489Z,10.20
2023-05-14T03:04:09.828Z,10.20
2023-05-14T03:06:36.769Z,10.30
2023-05-14T03:09:03.578Z,10.20
2023-05-14T03:11:30.326Z,10.20
2023-05-14T03:13:57.031Z,10.20
2023-05-14T03:16:23.741Z,10.20
2023-05-14T03:18:50.496Z,10.20
2023-05-14T03:21:17.301Z,10.20
2023-05-14T03:23:43.998Z,10.10
2023-05-14T03:26:12.853Z,10.20
2023-05-14T03:28:40.157Z,10.10
2023-05-14T03:31:06.985Z,10.10
2023-05-14T03:33:33.906Z,10.10
2023-05-14T03:36:00.663Z,12.30
2023-05-14T03:38:27.837Z,10.00
2023-05-14T03:40:54.523Z,9.90
2023-05-14T03:43:21.088Z,10.00
2023-05-14T03:45:52.705Z,10.70
2023-05-14T03:48:19.909Z,9.90
2023-05-14T03:50:46.808Z,10.00
2023-05-14T03:53:13.600Z,9.90
2023-05-14T03:55:40.506Z,10.00
2023-05-14T03:58:13.847Z,10.90
2023-05-14T04:00:43.799Z,9.90
2023-05-14T04:03:11.005Z,9.90
2023-05-14T04:05:37.847Z,9.90
2023-05-14T04:08:04.551Z,10.00
2023-05-14T04:10:32.161Z,9.90
2023-05-14T04:12:59.200Z,12.80
2023-05-14T04:15:25.899Z,9.90
2023-05-14T04:17:52.593Z,9.80
2023-05-14T04:20:19.280Z,9.90
2023-05-14T04:22:45.947Z,9.80
2023-05-14T04:25:12.616Z,9.90
2023-05-14T04:27:39.866Z,9.90
2023-05-14T04:30:08.724Z,9.90
2023-05-14T04:32:35.758Z,9.80
2023-05-14T04:35:02.826Z,9.80
2023-05-14T04:37:29.672Z,9.80
2023-05-14T04:39:56.696Z,9.80
2023-05-14T04:42:23.386Z,9.80
2023-05-14T04:44:50.119Z,9.80
2023-05-14T04:47:16.771Z,11.00
2023-05-14T04:49:43.465Z,9.90
2023-05-14T04:52:10.190Z,9.70
2023-05-14T04:54:36.813Z,9.80
2023-05-14T04:57:04.669Z,10.30
2023-05-14T04:59:31.588Z,9.70
2023-05-14T05:01:58.380Z,9.80
2023-05-14T05:04:26.396Z,10.50
2023-05-14T05:06:53.191Z,9.70
2023-05-14T05:09:19.951Z,9.70
2023-05-14T05:11:46.728Z,12.80
2023-05-14T05:14:13.481Z,11.10
2023-05-14T05:16:40.381Z,9.70
2023-05-14T05:19:07.384Z,9.70
2023-05-14T05:21:34.422Z,11.90
2023-05-14T05:24:01.083Z,9.70
2023-05-14T05:26:28.131Z,9.80
2023-05-14T05:28:54.870Z,9.80
2023-05-14T05:31:21.565Z,9.90
2023-05-14T05:33:49.948Z,9.80
2023-05-14T05:36:16.899Z,9.90
2023-05-14T05:38:43.565Z,9.90
2023-05-14T05:41:10.378Z,12.80
2023-05-14T05:43:37.403Z,9.90
2023-05-14T05:46:04.711Z,10.00
2023-05-14T05:48:31.445Z,11.50
2023-05-14T05:50:58.338Z,12.50
2023-05-14T05:53:24.978Z,10.10
2023-05-14T05:55:52.008Z,11.40
2023-05-14T05:58:19.404Z,10.20
2023-05-14T06:00:46.955Z,10.20
2023-05-14T06:03:13.678Z,13.50
2023-05-14T06:05:40.633Z,10.30
2023-05-14T06:08:07.584Z,11.30
2023-05-14T06:10:34.968Z,10.50
2023-05-14T06:13:01.961Z,10.60
2023-05-14T06:15:28.606Z,13.20
2023-05-14T06:17:55.477Z,10.60
2023-05-14T06:20:22.589Z,10.60
2023-05-14T06:22:49.371Z,10.50
2023-05-14T06:25:16.440Z,10.60
2023-05-14T06:27:43.073Z,10.50
2023-05-14T06:30:11.518Z,10.60
2023-05-14T06:32:38.171Z,10.50
2023-05-14T06:35:05.110Z,11.50
2023-05-14T06:37:32.076Z,10.50
2023-05-14T06:39:58.753Z,10.50
2023-05-14T06:42:26.494Z,13.50
2023-05-14T06:44:53.319Z,12.50
2023-05-14T06:47:19.948Z,10.60
2023-05-14T06:49:46.618Z,11.50
2023-05-14T06:52:13.286Z,12.80
2023-05-14T06:54:39.907Z,10.50
2023-05-14T06:57:06.572Z,10.50
2023-05-14T06:59:33.524Z,10.50
2023-05-14T07:02:00.282Z,10.60
2023-05-14T07:04:27.028Z,11.90
2023-05-14T07:06:53.715Z,12.10
2023-05-14T07:09:20.365Z,10.60
2023-05-14T07:11:47.211Z,10.60
2023-05-14T07:14:13.938Z,13.30
2023-05-14T07:16:41.698Z,12.30
2023-05-14T07:19:08.484Z,10.60
2023-05-14T07:21:35.595Z,12.60
2023-05-14T07:24:02.597Z,13.60
2023-05-14T07:26:29.371Z,10.80
2023-05-14T07:28:56.046Z,10.80
2023-05-14T07:31:22.761Z,12.30
2023-05-14T07:33:49.493Z,10.90
2023-05-14T07:36:16.214Z,12.50
2023-05-14T07:38:42.948Z,12.30
2023-05-14T07:41:11.419Z,12.80
2023-05-14T07:43:39.089Z,10.90
2023-05-14T07:46:05.937Z,13.10
2023-05-14T07:48:32.833Z,11.00
2023-05-14T07:51:00.208Z,11.10
2023-05-14T07:53:27.104Z,11.20
2023-05-14T07:55:54.717Z,13.90
2023-05-14T07:58:21.526Z,12.30
2023-05-14T08:00:48.195Z,14.10
2023-05-14T08:03:15.042Z,14.00
2023-05-14T08:05:41.870Z,13.90
2023-05-14T08:08:08.517Z,11.70
2023-05-14T08:10:35.441Z,11.70
2023-05-14T08:13:02.484Z,11.70
2023-05-14T08:15:29.243Z,13.70
2023-05-14T08:17:56.103Z,11.70
2023-05-14T08:20:23.147Z,14.90
2023-05-14T08:22:49.878Z,11.70
2023-05-14T08:25:16.773Z,13.20
2023-05-14T08:27:43.408Z,14.90
2023-05-14T08:30:10.335Z,13.80
2023-05-14T08:32:38.727Z,12.10
2023-05-14T08:35:05.664Z,12.20
2023-05-14T08:37:32.495Z,12.30
2023-05-14T08:39:59.604Z,13.40
2023-05-14T08:42:27.809Z,14.10
2023-05-14T08:45:01.791Z,15.80
2023-05-14T08:47:29.354Z,12.50
2023-05-14T08:50:06.645Z,15.00
2023-05-14T08:52:33.536Z,12.60
2023-05-14T08:55:05.541Z,12.80
2023-05-14T08:57:32.916Z,12.90
2023-05-14T09:00:00.072Z,15.20
2023-05-14T09:02:31.387Z,14.80
2023-05-14T09:04:59.394Z,13.50
2023-05-14T09:07:26.392Z,13.70
2023-05-14T09:09:53.600Z,16.10
2023-05-14T09:12:20.681Z,14.50
2023-05-14T09:14:48.238Z,15.30
2023-05-14T09:17:15.366Z,15.40
2023-05-14T09:19:43.971Z,15.20
2023-05-14T09:22:14.359Z,14.30
2023-05-14T09:24:42.068Z,14.30
2023-05-14T09:27:09.839Z,16.40
2023-05-14T09:29:37.150Z,17.00
2023-05-14T09:32:05.887Z,16.60
2023-05-14T09:34:34.389Z,14.50
2023-05-14T09:37:01.997Z,15.60
2023-05-14T09:39:29.227Z,15.30
2023-05-14T09:41:56.551Z,14.60
2023-05-14T09:44:23.671Z,15.70
2023-05-14T09:46:51.039Z,16.40
2023-05-14T09:49:17.895Z,14.60
2023-05-14T09:51:44.677Z,14.60
2023-05-14T09:54:12.156Z,14.90
2023-05-14T09:56:39.705Z,16.00
2023-05-14T09:59:06.723Z,15.10
2023-05-14T10:01:33.479Z,17.10
2023-05-14T10:04:00.690Z,16.90
2023-05-14T10:06:32.753Z,17.10
2023-05-14T10:09:04.317Z,15.90
2023-05-14T10:11:37.427Z,17.90
2023-05-14T10:14:23.181Z,15.90
2023-05-14T10:16:51.157Z,15.90
2023-05-14T10:19:18.792Z,17.30
2023-05-14T10:21:47.694Z,16.00
2023-05-14T10:24:14.830Z,16.00
2023-05-14T10:26:42.297Z,17.30
2023-05-14T10:29:12.790Z,17.00
2023-05-14T10:31:47.242Z,15.80
2023-05-14T10:34:40.951Z,15.70
2023-05-14T10:37:28.227Z,15.70
2023-05-14T10:39:58.388Z,16.70
2023-05-14T10:42:30.483Z,15.10
2023-05-14T10:45:02.072Z,14.40
2023-05-14T10:47:29.474Z,15.80
2023-05-14T10:49:56.992Z,13.80
2023-05-14T10:52:24.502Z,13.60
2023-05-14T10:54:52.280Z,15.00
2023-05-14T10:57:19.838Z,16.30
2023-05-14T10:59:47.205Z,14.90
2023-05-14T11:02:40.313Z,13.80
2023-05-14T11:05:11.856Z,13.80
2023-05-14T11:07:40.292Z,13.80
2023-05-14T11:10:12.136Z,16.00
2023-05-14T11:12:41.635Z,14.00
2023-05-14T11:15:09.956Z,16.20
2023-05-14T11:17:37.816Z,14.10
2023-05-14T11:20:08.485Z,15.50
2023-05-14T11:22:35.816Z,14.60
2023-05-14T11:25:02.813Z,17.00
2023-05-14T11:27:29.854Z,15.90
2023-05-14T11:29:58.047Z,16.00
2023-05-14T11:32:24.819Z,16.10
2023-05-14T11:34:51.576Z,16.40
2023-05-14T11:37:19.559Z,15.70
2023-05-14T11:39:47.303Z,15.20
2023-05-14T11:42:16.273Z,15.00
2023-05-14T11:44:44.550Z,15.30
2023-05-14T11:47:11.763Z,16.00
2023-05-14T11:49:38.873Z,16.80
2023-05-14T11:52:06.638Z,14.80
2023-05-14T11:54:33.884Z,14.60
2023-05-14T11:57:08.631Z,16.10
2023-05-14T11:59:35.375Z,15.80
2023-05-14T12:02:02.725Z,16.90
2023-05-14T12:04:29.528Z,18.10
2023-05-14T12:06:57.655Z,17.20
2023-05-14T12:09:24.432Z,18.50
2023-05-14T12:11:51.949Z,16.20
2023-05-14T12:14:20.389Z,17.20
2023-05-14T12:16:47.726Z,18.90
2023-05-14T12:19:15.398Z,18.60
2023-05-14T12:21:46.615Z,16.50
2023-05-14T12:24:14.377Z,16.40
2023-05-14T12:26:44.388Z,17.00
2023-05-14T12:29:13.029Z,16.50
2023-05-14T12:31:45.692Z,16.90
2023-05-14T12:34:12.349Z,17.00
2023-05-14T12:36:39.146Z,16.80
2023-05-14T12:39:06.298Z,18.40
2023-05-14T12:41:33.489Z,18.10
2023-05-14T12:44:00.264Z,15.90
2023-05-14T12:46:27.901Z,17.90
2023-05-14T12:48:54.716Z,17.70
2023-05-14T12:51:21.433Z,17.00
2023-05-14T12:53:48.451Z,16.70
2023-05-14T12:56:15.530Z,17.00
2023-05-14T12:58:42.201Z,16.40
2023-05-14T13:01:09.373Z,15.50
2023-05-14T13:03:36.120Z,15.70
2023-05-14T13:06:02.978Z,15.10
2023-05-14T13:08:29.955Z,16.30
2023-05-14T13:10:57.148Z,15.10
2023-05-14T13:13:23.981Z,17.60
2023-05-14T13:15:51.409Z,16.50
2023-05-14T13:18:18.406Z,16.90
2023-05-14T13:20:46.498Z,16.50
2023-05-14T13:23:13.733Z,15.40
2023-05-14T13:25:40.744Z,17.40
2023-05-14T13:28:08.428Z,15.50
2023-05-14T13:30:35.118Z,15.30
2023-05-14T13:33:02.166Z,15.20
2023-05-14T13:35:29.155Z,14.90
2023-05-14T13:37:55.938Z,14.50
2023-05-14T13:40:23.037Z,14.80
2023-05-14T13:42:49.890Z,13.60
2023-05-14T13:45:16.620Z,13.30
2023-05-14T13:47:43.563Z,13.10
2023-05-14T13:50:10.641Z,12.90
2023-05-14T13:52:39.208Z,12.80
2023-05-14T13:55:06.352Z,12.70
2023-05-14T13:57:33.034Z,12.60
2023-05-14T14:00:00.219Z,14.20
2023-05-14T14:02:27.044Z,14.30
2023-05-14T14:04:53.850Z,15.40
2023-05-14T14:07:21.271Z,12.70
2023-05-14T14:09:48.379Z,14.10
2023-05-14T14:12:15.025Z,14.90
2023-05-14T14:14:43.118Z,16.10
2023-05-14T14:17:09.940Z,12.90
2023-05-14T14:19:36.765Z,15.80
2023-05-14T14:22:03.698Z,15.20
2023-05-14T14:24:30.823Z,13.00
2023-05-14T14:26:57.744Z,11.40
2023-05-14T14:29:24.524Z,14.50
2023-05-14T14:31:51.545Z,15.40
2023-05-14T14:34:18.305Z,14.30
2023-05-14T14:36:44.992Z,15.00
2023-05-14T14:39:11.751Z,15.60
2023-05-14T14:41:38.735Z,15.50
2023-05-14T14:44:05.921Z,15.50
2023-05-14T14:46:32.833Z,13.90
2023-05-14T14:48:59.791Z,15.70
2023-05-14T14:51:26.458Z,13.70
2023-05-14T14:53:53.484Z,15.90
2023-05-14T14:56:20.352Z,15.30
2023-05-14T14:58:47.020Z,14.80
2023-05-14T15:01:13.698Z,13.50
2023-05-14T15:03:41.380Z,13.60
2023-05-14T15:06:08.672Z,15.00
2023-05-14T15:08:35.727Z,13.60
2023-05-14T15:11:02.419Z,14.20
2023-05-14T15:13:29.580Z,13.70
2023-05-14T15:15:56.400Z,17.20
2023-05-14T15:18:23.179Z,14.10
2023-05-14T15:20:50.039Z,14.80
2023-05-14T15:23:16.751Z,15.20
2023-05-14T15:25:43.698Z,15.00
2023-05-14T15:28:10.882Z,17.70
2023-05-14T15:30:37.599Z,14.10
2023-05-14T15:33:04.362Z,16.50
2023-05-14T15:35:31.043Z,14.30
2023-05-14T15:37:58.029Z,14.50
2023-05-14T15:40:24.928Z,15.40
2023-05-14T15:42:51.760Z,16.80
2023-05-14T15:45:18.553Z,16.70
2023-05-14T15:47:45.512Z,16.10
2023-05-14T15:50:12.474Z,14.10
2023-05-14T15:52:39.842Z,16.60
2023-05-14T15:55:07.014Z,14.10
2023-05-14T15:57:34.413Z,14.10
2023-05-14T16:00:01.149Z,15.30
2023-05-14T16:02:30.428Z,16.80
2023-05-14T16:04:57.652Z,14.10
2023-05-14T16:07:24.360Z,16.70
2023-05-14T16:09:51.168Z,15.60
2023-05-14T16:12:18.145Z,16.50
2023-05-14T16:14:45.347Z,14.50
2023-05-14T16:17:12.116Z,16.40
2023-05-14T16:19:39.406Z,15.70
2023-05-14T16:22:06.567Z,15.50
2023-05-14T16:24:33.509Z,16.20
2023-05-14T16:27:00.843Z,15.10
2023-05-14T16:29:27.946Z,14.60
2023-05-14T16:31:54.686Z,14.50
2023-05-14T16:34:21.395Z,15.50
2023-05-14T16:36:48.328Z,16.30
2023-05-14T16:39:15.139Z,16.50
2023-05-14T16:41:42.077Z,14.20
2023-05-14T16:44:08.757Z,15.00
2023-05-14T16:46:35.611Z,16.30
2023-05-14T16:49:02.513Z,15.20
2023-05-14T16:51:29.496Z,14.80
2023-05-14T16:53:56.235Z,15.90
2023-05-14T16:56:23.233Z,15.60
2023-05-14T16:58:52.282Z,14.20
2023-05-14T17:01:22.404Z,14.20
2023-05-14T17:03:49.069Z,14.20
2023-05-14T17:06:16.579Z,15.90
2023-05-14T17:08:43.712Z,14.90
2023-05-14T17:11:11.490Z,14.60
2023-05-14T17:13:38.113Z,14.30
2023-05-14T17:16:04.985Z,14.80
2023-05-14T17:18:32.683Z,14.40
2023-05-14T17:20:59.397Z,15.90
2023-05-14T17:23:26.099Z,16.80
2023-05-14T17:25:53.190Z,15.00
2023-05-14T17:28:19.811Z,16.60
2023-05-14T17:30:46.457Z,16.80
2023-05-14T17:33:13.154Z,14.90
2023-05-14T17:35:40.057Z,16.60
2023-05-14T17:38:07.383Z,14.80
2023-05-14T17:40:35.098Z,14.80
2023-05-14T17:43:03.533Z,16.70
2023-05-14T17:45:39.363Z,14.70
2023-05-14T17:48:10.684Z,17.00
2023-05-14T17:50:37.516Z,15.00
2023-05-14T17:53:04.153Z,14.50
2023-05-14T17:55:31.216Z,16.70
2023-05-14T17:57:59.279Z,16.30
2023-05-14T18:00:25.913Z,14.20
2023-05-14T18:02:52.942Z,14.80
2023-05-14T18:05:22.786Z,15.30
2023-05-14T18:07:49.839Z,14.50
2023-05-14T18:10:18.952Z,15.50
2023-05-14T18:12:47.140Z,13.60
2023-05-14T18:15:13.832Z,13.50
2023-05-14T18:17:41.167Z,13.50
2023-05-14T18:20:08.261Z,15.40
2023-05-14T18:22:35.606Z,13.40
2023-05-14T18:25:02.533Z,13.60
2023-05-14T18:27:29.492Z,13.30
2023-05-14T18:29:56.485Z,15.10
2023-05-14T18:32:23.203Z,14.80
2023-05-14T18:34:50.060Z,14.30
2023-05-14T18:37:16.789Z,13.90
2023-05-14T18:39:43.894Z,15.10
2023-05-14T18:42:11.023Z,12.90
2023-05-14T18:44:42.063Z,14.00
2023-05-14T18:47:08.812Z,14.10
2023-05-14T18:49:39.520Z,12.60
2023-05-14T18:52:08.089Z,12.40
2023-05-14T18:54:36.607Z,12.40
2023-05-14T18:57:06.961Z,13.70
2023-05-14T18:59:33.604Z,12.20
2023-05-14T19:02:00.827Z,12.10
2023-05-14T19:04:29.711Z,12.00
2023-05-14T19:07:00.923Z,11.90
2023-05-14T19:09:28.480Z,11.90
2023-05-14T19:11:55.693Z,11.90
2023-05-14T19:14:22.254Z,11.80
2023-05-14T19:16:48.859Z,11.80
2023-05-14T19:19:15.808Z,14.20
2023-05-14T19:21:42.675Z,13.20
2023-05-14T19:24:10.484Z,14.10
2023-05-14T19:26:37.274Z,13.90
2023-05-14T19:29:06.523Z,13.10
2023-05-14T19:31:33.589Z,13.40
2023-05-14T19:34:02.600Z,11.20
2023-05-14T19:36:31.713Z,11.20
2023-05-14T19:38:59.713Z,13.80
2023-05-14T19:41:26.513Z,13.20
2023-05-14T19:43:53.174Z,13.40
2023-05-14T19:46:21.355Z,11.00
2023-05-14T19:48:49.059Z,10.90
2023-05-14T19:51:16.064Z,12.50
2023-05-14T19:53:43.138Z,12.40
2023-05-14T19:56:10.074Z,12.60
2023-05-14T19:58:37.429Z,10.90
2023-05-14T20:01:04.363Z,10.80
2023-05-14T20:03:31.153Z,12.20
2023-05-14T20:06:00.184Z,10.80
2023-05-14T20:08:26.869Z,10.80
2023-05-14T20:10:53.513Z,11.70
2023-05-14T20:13:20.538Z,13.40
2023-05-14T20:15:47.848Z,12.20
2023-05-14T20:18:14.851Z,12.80
2023-05-14T20:20:42.812Z,10.60
2023-05-14T20:23:09.456Z,10.60
2023-05-14T20:25:36.180Z,10.60
2023-05-14T20:28:02.914Z,10.60
2023-05-14T20:30:32.950Z,10.60
2023-05-14T20:32:59.772Z,10.60
2023-05-14T20:35:26.846Z,12.20
2023-05-14T20:37:53.698Z,10.80
2023-05-14T20:40:21.429Z,12.20
2023-05-14T20:42:50.370Z,10.40
2023-05-14T20:45:17.390Z,10.40
2023-05-14T20:47:44.562Z,10.30
2023-05-14T20:50:11.717Z,10.30
2023-05-14T20:52:38.553Z,10.20
2023-05-14T20:55:05.848Z,10.20
2023-05-14T20:57:32.475Z,10.10
2023-05-14T20:59:59.370Z,10.10
2023-05-14T21:02:26.289Z,10.00
2023-05-14T21:04:53.327Z,9.90
2023-05-14T21:07:20.042Z,12.20
2023-05-14T21:09:52.334Z,11.40
2023-05-14T21:12:19.592Z,9.90
2023-05-14T21:14:46.322Z,9.90
2023-05-14T21:17:13.037Z,9.90
2023-05-14T21:19:39.716Z,10.00
2023-05-14T21:22:06.949Z,10.00
2023-05-14T21:24:36.064Z,9.90
2023-05-14T21:27:02.856Z,9.80
2023-05-14T21:29:29.484Z,9.80
2023-05-14T21:31:56.334Z,9.90
2023-05-14T21:34:23.146Z,11.30
2023-05-14T21:36:49.992Z,9.80
2023-05-14T21:39:19.133Z,9.80
2023-05-14T21:41:45.869Z,9.80
2023-05-14T21:44:12.509Z,12.60
2023-05-14T21:46:39.360Z,9.80
2023-05-14T21:49:06.083Z,12.40
2023-05-14T21:51:33.813Z,9.80
2023-05-14T21:54:00.455Z,9.70
2023-05-14T21:56:27.450Z,9.70
2023-05-14T21:58:55.990Z,12.60
2023-05-14T22:01:22.998Z,12.80
2023-05-14T22:03:49.804Z,13.00
2023-05-14T22:06:16.833Z,9.70
2023-05-14T22:08:43.620Z,11.40
2023-05-14T22:11:10.251Z,10.80
2023-05-14T22:13:40.910Z,9.70
2023-05-14T22:16:13.672Z,12.30
2023-05-14T22:18:41.165Z,9.60
2023-05-14T22:21:08.036Z,9.60
2023-05-14T22:23:34.750Z,11.80
2023-05-14T22:26:01.520Z,12.20
2023-05-14T22:28:28.110Z,11.90
2023-05-14T22:30:56.426Z,11.10
2023-05-14T22:33:23.375Z,9.50
2023-05-14T22:35:52.984Z,9.40
2023-05-14T22:38:20.432Z,6.80
2023-05-14T22:40:47.309Z,9.10
2023-05-14T22:43:14.109Z,9.10
2023-05-14T22:45:40.932Z,8.90
2023-05-14T22:48:07.554Z,8.60
2023-05-14T22:50:34.308Z,8.50
2023-05-14T22:53:00.967Z,11.30
2023-05-14T22:55:28.115Z,8.70
2023-05-14T22:57:55.209Z,8.70
2023-05-14T23:00:21.883Z,8.70
2023-05-14T23:02:48.581Z,8.50
2023-05-14T23:05:15.325Z,8.60
2023-05-14T23:07:42.046Z,8.60
2023-05-14T23:10:09.055Z,8.60
2023-05-14T23:12:38.524Z,8.50
2023-05-14T23:15:05.571Z,8.40
2023-05-14T23:17:32.385Z,8.50
2023-05-14T23:19:59.259Z,10.50
2023-05-14T23:22:25.912Z,10.00
2023-05-14T23:24:52.520Z,8.80
2023-05-14T23:27:19.140Z,8.80
2023-05-14T23:29:45.921Z,9.00
2023-05-14T23:32:12.991Z,10.90
2023-05-14T23:34:39.692Z,9.00
2023-05-14T23:37:06.667Z,10.90
2023-05-14T23:39:33.412Z,9.10
2023-05-14T23:42:00.132Z,9.10
2023-05-14T23:44:27.094Z,10.60
2023-05-14T23:46:53.839Z,10.90
2023-05-14T23:49:20.765Z,9.20
2023-05-14T23:51:47.408Z,9.10
2023-05-14T23:54:14.575Z,11.60
2023-05-14T23:56:41.201Z,9.00
2023-05-14T23:59:07.932Z,11.70
